首页
METAR-TAF:

METAR-TAF

机场 :

伯明翰机场

伯明翰, 英格兰

纬度: 52-27N, 经度: 001-44W, 海拔: 99米

当前天气观测

该预报发布于28分钟前的22:50 UTC
风速8节,风向北转西北
温度 10°C
湿度 87%
气压 1009 hPa
能见度10公里或以上
多云层高于4300英尺

METAR: EGBB 032250Z 34008KT 9999 BKN043 10/08 Q1009

时间: 00:18 (23:18 UTC)

预报

该预报发布于6小时和21分钟前的16:57 UTC
预报有效从03日的 18点(UTC)到 04日的 18点(UTC)
风速8节,风向
能见度10公里或以上
散云层高于2500英尺
短暂存在
从 03日的 18点(UTC)到 04日的 03点(UTC)
能見度: 7000
多云层高于1400英尺
小雨
几率 40% :
短暂存在
从 03日的 18点(UTC)到 03日的 20点(UTC)
多云层高于800英尺
短暂存在
从 04日的 12点(UTC)到 04日的 18点(UTC)
能見度: 6000
阵雨

TAF: EGBB 031657Z 0318/0418 36008KT 9999 SCT025 TEMPO 0318/0403 7000 -RA BKN014 PROB40 TEMPO 0318/0320 BKN008 TEMPO 0412/0418 6000 SHRA

超过4000个机场的气象观测和天气预报(METAR&TAF报告)。

可查询的气象台以黄色和红色小点在地图上表示。

将鼠标移到小点上方,可查看气象台名称。

然后点击查看天气观测和预报。

如需切换地图:点击带黑十字的绿色按钮放大地图;点击带横线的绿色按钮缩小地图;或者点击绿色箭头查看邻近地区的地图。


METAR-TAF: